sensor_id;sensor_type;location;lat;lon;timestamp;P1;durP1;ratioP1;P2;durP2;ratioP2
43327;SDS011;28923;45.412;10.852;2023-04-01T00:02:02;4.43;;;3.38;;
43327;SDS011;28923;45.412;10.852;2023-04-01T00:04:28;4.82;;;3.38;;
43327;SDS011;28923;45.412;10.852;2023-04-01T00:06:53;4.80;;;3.20;;
43327;SDS011;28923;45.412;10.852;2023-04-01T00:09:19;4.90;;;3.10;;
43327;SDS011;28923;45.412;10.852;2023-04-01T00:11:44;5.30;;;3.30;;
43327;SDS011;28923;45.412;10.852;2023-04-01T00:14:10;4.10;;;3.20;;
43327;SDS011;28923;45.412;10.852;2023-04-01T00:16:36;4.25;;;3.25;;
43327;SDS011;28923;45.412;10.852;2023-04-01T00:19:02;4.82;;;3.17;;
43327;SDS011;28923;45.412;10.852;2023-04-01T00:21:27;3.95;;;3.15;;
43327;SDS011;28923;45.412;10.852;2023-04-01T00:23:53;4.55;;;3.38;;
43327;SDS011;28923;45.412;10.852;2023-04-01T00:26:19;4.10;;;3.10;;
43327;SDS011;28923;45.412;10.852;2023-04-01T00:28:46;4.40;;;3.50;;
43327;SDS011;28923;45.412;10.852;2023-04-01T00:31:12;4.50;;;3.13;;
43327;SDS011;28923;45.412;10.852;2023-04-01T00:33:38;4.10;;;3.35;;
43327;SDS011;28923;45.412;10.852;2023-04-01T00:36:08;4.40;;;3.40;;
43327;SDS011;28923;45.412;10.852;2023-04-01T00:38:37;3.85;;;3.00;;
43327;SDS011;28923;45.412;10.852;2023-04-01T00:41:03;3.70;;;3.17;;
43327;SDS011;28923;45.412;10.852;2023-04-01T00:43:29;4.38;;;3.38;;
43327;SDS011;28923;45.412;10.852;2023-04-01T00:45:55;5.07;;;3.45;;
43327;SDS011;28923;45.412;10.852;2023-04-01T00:48:39;5.22;;;3.35;;
43327;SDS011;28923;45.412;10.852;2023-04-01T00:51:07;5.70;;;3.58;;
43327;SDS011;28923;45.412;10.852;2023-04-01T00:53:36;6.35;;;3.50;;
43327;SDS011;28923;45.412;10.852;2023-04-01T00:56:13;4.28;;;3.13;;
43327;SDS011;28923;45.412;10.852;2023-04-01T00:58:41;5.00;;;3.35;;
43327;SDS011;28923;45.412;10.852;2023-04-01T01:01:08;5.10;;;3.10;;
43327;SDS011;28923;45.412;10.852;2023-04-01T01:03:34;4.72;;;3.40;;
43327;SDS011;28923;45.412;10.852;2023-04-01T01:06:03;3.83;;;3.10;;
43327;SDS011;28923;45.412;10.852;2023-04-01T01:10:57;4.57;;;3.28;;
43327;SDS011;28923;45.412;10.852;2023-04-01T01:18:34;4.07;;;2.90;;
43327;SDS011;28923;45.412;10.852;2023-04-01T01:26:35;3.28;;;2.67;;
43327;SDS011;28923;45.412;10.852;2023-04-01T01:36:50;3.60;;;2.97;;
43327;SDS011;28923;45.412;10.852;2023-04-01T01:39:19;4.45;;;3.15;;
43327;SDS011;28923;45.412;10.852;2023-04-01T01:41:46;3.25;;;2.78;;
43327;SDS011;28923;45.412;10.852;2023-04-01T01:44:14;3.08;;;2.72;;
43327;SDS011;28923;45.412;10.852;2023-04-01T01:46:41;3.47;;;2.90;;
43327;SDS011;28923;45.412;10.852;2023-04-01T01:49:07;3.72;;;2.78;;
43327;SDS011;28923;45.412;10.852;2023-04-01T01:51:35;4.75;;;3.10;;
43327;SDS011;28923;45.412;10.852;2023-04-01T01:54:02;2.80;;;2.55;;
43327;SDS011;28923;45.412;10.852;2023-04-01T01:56:29;3.25;;;2.95;;
43327;SDS011;28923;45.412;10.852;2023-04-01T01:59:06;4.15;;;3.05;;
43327;SDS011;28923;45.412;10.852;2023-04-01T02:01:35;3.45;;;2.85;;
43327;SDS011;28923;45.412;10.852;2023-04-01T02:04:09;3.30;;;2.70;;
43327;SDS011;28923;45.412;10.852;2023-04-01T02:06:37;3.15;;;2.80;;
43327;SDS011;28923;45.412;10.852;2023-04-01T02:09:04;3.85;;;2.72;;
43327;SDS011;28923;45.412;10.852;2023-04-01T02:11:34;4.47;;;2.70;;
43327;SDS011;28923;45.412;10.852;2023-04-01T02:16:31;3.20;;;2.90;;
43327;SDS011;28923;45.412;10.852;2023-04-01T02:18:59;3.53;;;2.90;;
43327;SDS011;28923;45.412;10.852;2023-04-01T02:21:27;4.88;;;2.97;;
43327;SDS011;28923;45.412;10.852;2023-04-01T02:23:55;3.67;;;2.60;;
43327;SDS011;28923;45.412;10.852;2023-04-01T02:26:22;3.95;;;2.80;;
43327;SDS011;28923;45.412;10.852;2023-04-01T02:28:48;3.90;;;2.92;;
43327;SDS011;28923;45.412;10.852;2023-04-01T02:31:14;3.38;;;2.70;;
43327;SDS011;28923;45.412;10.852;2023-04-01T02:33:40;3.17;;;2.53;;
43327;SDS011;28923;45.412;10.852;2023-04-01T02:36:06;4.45;;;2.75;;
43327;SDS011;28923;45.412;10.852;2023-04-01T02:38:35;3.97;;;2.58;;
43327;SDS011;28923;45.412;10.852;2023-04-01T02:41:01;2.95;;;2.63;;
43327;SDS011;28923;45.412;10.852;2023-04-01T02:43:27;3.03;;;2.72;;
43327;SDS011;28923;45.412;10.852;2023-04-01T02:45:53;3.38;;;2.67;;
43327;SDS011;28923;45.412;10.852;2023-04-01T02:48:19;3.03;;;2.70;;
43327;SDS011;28923;45.412;10.852;2023-04-01T02:50:44;3.03;;;2.65;;
43327;SDS011;28923;45.412;10.852;2023-04-01T02:53:10;2.88;;;2.35;;
43327;SDS011;28923;45.412;10.852;2023-04-01T02:55:36;3.55;;;3.00;;
43327;SDS011;28923;45.412;10.852;2023-04-01T02:58:02;4.47;;;2.80;;
43327;SDS011;28923;45.412;10.852;2023-04-01T03:00:28;4.05;;;3.03;;
43327;SDS011;28923;45.412;10.852;2023-04-01T03:02:54;3.65;;;2.95;;
43327;SDS011;28923;45.412;10.852;2023-04-01T03:05:20;4.88;;;3.10;;
43327;SDS011;28923;45.412;10.852;2023-04-01T03:07:45;3.67;;;3.08;;
43327;SDS011;28923;45.412;10.852;2023-04-01T03:10:11;3.35;;;2.88;;
43327;SDS011;28923;45.412;10.852;2023-04-01T03:12:37;4.60;;;3.17;;
43327;SDS011;28923;45.412;10.852;2023-04-01T03:15:02;3.40;;;2.83;;
43327;SDS011;28923;45.412;10.852;2023-04-01T03:17:28;4.38;;;3.15;;
43327;SDS011;28923;45.412;10.852;2023-04-01T03:19:53;3.30;;;2.88;;
43327;SDS011;28923;45.412;10.852;2023-04-01T03:22:19;3.60;;;3.10;;
43327;SDS011;28923;45.412;10.852;2023-04-01T03:24:49;4.05;;;3.40;;
43327;SDS011;28923;45.412;10.852;2023-04-01T03:27:15;5.57;;;3.80;;
43327;SDS011;28923;45.412;10.852;2023-04-01T03:29:41;6.22;;;3.42;;
43327;SDS011;28923;45.412;10.852;2023-04-01T03:32:08;6.38;;;3.25;;
43327;SDS011;28923;45.412;10.852;2023-04-01T03:34:34;5.00;;;3.05;;
43327;SDS011;28923;45.412;10.852;2023-04-01T03:37:00;4.63;;;3.63;;
43327;SDS011;28923;45.412;10.852;2023-04-01T03:39:25;3.53;;;2.97;;
43327;SDS011;28923;45.412;10.852;2023-04-01T03:41:51;4.18;;;3.50;;
43327;SDS011;28923;45.412;10.852;2023-04-01T03:44:16;5.32;;;3.50;;
43327;SDS011;28923;45.412;10.852;2023-04-01T03:46:45;4.03;;;3.15;;
43327;SDS011;28923;45.412;10.852;2023-04-01T03:49:11;4.68;;;3.42;;
43327;SDS011;28923;45.412;10.852;2023-04-01T03:51:43;4.07;;;3.22;;
43327;SDS011;28923;45.412;10.852;2023-04-01T03:54:09;4.70;;;3.63;;
43327;SDS011;28923;45.412;10.852;2023-04-01T03:56:35;4.00;;;3.00;;
43327;SDS011;28923;45.412;10.852;2023-04-01T03:59:02;3.95;;;3.10;;
43327;SDS011;28923;45.412;10.852;2023-04-01T04:01:27;4.82;;;3.58;;
43327;SDS011;28923;45.412;10.852;2023-04-01T04:03:54;3.58;;;3.20;;
43327;SDS011;28923;45.412;10.852;2023-04-01T04:06:21;5.88;;;3.38;;
43327;SDS011;28923;45.412;10.852;2023-04-01T04:08:47;3.55;;;2.92;;
43327;SDS011;28923;45.412;10.852;2023-04-01T04:11:13;4.28;;;3.70;;
43327;SDS011;28923;45.412;10.852;2023-04-01T04:13:41;3.47;;;3.17;;
43327;SDS011;28923;45.412;10.852;2023-04-01T04:16:07;4.10;;;3.45;;
43327;SDS011;28923;45.412;10.852;2023-04-01T04:18:35;4.63;;;3.88;;
43327;SDS011;28923;45.412;10.852;2023-04-01T04:21:01;4.20;;;3.50;;
43327;SDS011;28923;45.412;10.852;2023-04-01T04:23:27;4.75;;;3.67;;
43327;SDS011;28923;45.412;10.852;2023-04-01T04:26:14;4.30;;;3.47;;
43327;SDS011;28923;45.412;10.852;2023-04-01T04:28:41;4.25;;;3.28;;
43327;SDS011;28923;45.412;10.852;2023-04-01T04:31:07;4.55;;;3.78;;
43327;SDS011;28923;45.412;10.852;2023-04-01T04:33:34;4.95;;;3.70;;
43327;SDS011;28923;45.412;10.852;2023-04-01T04:36:00;4.30;;;3.50;;
43327;SDS011;28923;45.412;10.852;2023-04-01T04:38:26;4.38;;;3.60;;
43327;SDS011;28923;45.412;10.852;2023-04-01T04:40:53;3.90;;;3.20;;
43327;SDS011;28923;45.412;10.852;2023-04-01T04:43:19;3.97;;;3.58;;
43327;SDS011;28923;45.412;10.852;2023-04-01T04:45:45;4.13;;;3.60;;
43327;SDS011;28923;45.412;10.852;2023-04-01T04:48:14;3.85;;;3.30;;
43327;SDS011;28923;45.412;10.852;2023-04-01T04:50:44;4.00;;;3.53;;
43327;SDS011;28923;45.412;10.852;2023-04-01T04:53:11;5.55;;;3.45;;
43327;SDS011;28923;45.412;10.852;2023-04-01T04:55:36;4.00;;;3.60;;
43327;SDS011;28923;45.412;10.852;2023-04-01T04:58:17;4.20;;;3.60;;
43327;SDS011;28923;45.412;10.852;2023-04-01T05:00:43;4.25;;;3.70;;
43327;SDS011;28923;45.412;10.852;2023-04-01T05:03:17;4.13;;;3.58;;
43327;SDS011;28923;45.412;10.852;2023-04-01T05:05:47;4.05;;;3.22;;
43327;SDS011;28923;45.412;10.852;2023-04-01T05:08:13;6.93;;;3.38;;
43327;SDS011;28923;45.412;10.852;2023-04-01T05:10:39;4.50;;;3.40;;
43327;SDS011;28923;45.412;10.852;2023-04-01T05:13:04;5.13;;;3.45;;
43327;SDS011;28923;45.412;10.852;2023-04-01T05:15:30;10.18;;;4.05;;
43327;SDS011;28923;45.412;10.852;2023-04-01T05:17:55;8.68;;;4.20;;
43327;SDS011;28923;45.412;10.852;2023-04-01T05:20:20;9.95;;;4.30;;
43327;SDS011;28923;45.412;10.852;2023-04-01T05:22:46;7.72;;;3.95;;
43327;SDS011;28923;45.412;10.852;2023-04-01T05:25:11;12.95;;;4.05;;
43327;SDS011;28923;45.412;10.852;2023-04-01T05:27:36;13.80;;;4.15;;
43327;SDS011;28923;45.412;10.852;2023-04-01T05:30:02;11.80;;;4.10;;
43327;SDS011;28923;45.412;10.852;2023-04-01T05:32:57;10.77;;;4.43;;
43327;SDS011;28923;45.412;10.852;2023-04-01T05:35:23;9.82;;;3.58;;
43327;SDS011;28923;45.412;10.852;2023-04-01T05:37:49;7.82;;;3.72;;
43327;SDS011;28923;45.412;10.852;2023-04-01T05:40:15;13.38;;;3.50;;
43327;SDS011;28923;45.412;10.852;2023-04-01T05:42:40;6.85;;;3.65;;
43327;SDS011;28923;45.412;10.852;2023-04-01T05:45:06;6.82;;;3.72;;
43327;SDS011;28923;45.412;10.852;2023-04-01T05:47:50;7.72;;;3.72;;
43327;SDS011;28923;45.412;10.852;2023-04-01T05:50:17;8.82;;;3.58;;
43327;SDS011;28923;45.412;10.852;2023-04-01T05:52:42;8.50;;;4.15;;
43327;SDS011;28923;45.412;10.852;2023-04-01T05:55:09;9.63;;;3.47;;
43327;SDS011;28923;45.412;10.852;2023-04-01T05:57:34;13.73;;;3.80;;
43327;SDS011;28923;45.412;10.852;2023-04-01T06:00:00;6.78;;;3.15;;
43327;SDS011;28923;45.412;10.852;2023-04-01T06:02:25;14.00;;;3.40;;
43327;SDS011;28923;45.412;10.852;2023-04-01T06:05:02;6.22;;;3.17;;
43327;SDS011;28923;45.412;10.852;2023-04-01T06:07:28;8.25;;;3.30;;
43327;SDS011;28923;45.412;10.852;2023-04-01T06:09:54;6.95;;;3.88;;
43327;SDS011;28923;45.412;10.852;2023-04-01T06:17:26;10.52;;;3.55;;
43327;SDS011;28923;45.412;10.852;2023-04-01T06:52:42;8.80;;;4.65;;
43327;SDS011;28923;45.412;10.852;2023-04-01T06:55:58;8.38;;;4.30;;
43327;SDS011;28923;45.412;10.852;2023-04-01T06:58:53;10.18;;;4.80;;
43327;SDS011;28923;45.412;10.852;2023-04-01T07:01:24;5.55;;;4.40;;
43327;SDS011;28923;45.412;10.852;2023-04-01T07:04:00;8.10;;;4.43;;
43327;SDS011;28923;45.412;10.852;2023-04-01T07:06:32;8.35;;;4.40;;
43327;SDS011;28923;45.412;10.852;2023-04-01T07:09:03;7.63;;;4.05;;
43327;SDS011;28923;45.412;10.852;2023-04-01T07:11:50;7.35;;;3.47;;
43327;SDS011;28923;45.412;10.852;2023-04-01T07:14:41;6.80;;;3.50;;
43327;SDS011;28923;45.412;10.852;2023-04-01T07:17:28;8.38;;;4.22;;
43327;SDS011;28923;45.412;10.852;2023-04-01T07:19:58;6.80;;;3.97;;
43327;SDS011;28923;45.412;10.852;2023-04-01T07:27:56;6.88;;;3.40;;
43327;SDS011;28923;45.412;10.852;2023-04-01T07:30:25;6.53;;;3.45;;
43327;SDS011;28923;45.412;10.852;2023-04-01T07:33:04;5.03;;;3.53;;
43327;SDS011;28923;45.412;10.852;2023-04-01T07:35:36;9.05;;;3.60;;
43327;SDS011;28923;45.412;10.852;2023-04-01T07:40:51;8.10;;;3.15;;
43327;SDS011;28923;45.412;10.852;2023-04-01T07:53:49;14.02;;;3.42;;
43327;SDS011;28923;45.412;10.852;2023-04-01T07:56:24;7.10;;;3.00;;
43327;SDS011;28923;45.412;10.852;2023-04-01T08:07:17;9.15;;;3.00;;
43327;SDS011;28923;45.412;10.852;2023-04-01T08:21:01;11.07;;;5.88;;
43327;SDS011;28923;45.412;10.852;2023-04-01T08:23:27;11.70;;;5.95;;
43327;SDS011;28923;45.412;10.852;2023-04-01T08:26:04;11.13;;;6.35;;
43327;SDS011;28923;45.412;10.852;2023-04-01T08:28:37;15.75;;;6.70;;
43327;SDS011;28923;45.412;10.852;2023-04-01T08:31:13;10.65;;;6.43;;
43327;SDS011;28923;45.412;10.852;2023-04-01T08:33:43;15.50;;;7.13;;
43327;SDS011;28923;45.412;10.852;2023-04-01T08:41:24;16.23;;;8.82;;
43327;SDS011;28923;45.412;10.852;2023-04-01T08:49:45;16.05;;;9.05;;
43327;SDS011;28923;45.412;10.852;2023-04-01T08:52:41;14.68;;;9.93;;
43327;SDS011;28923;45.412;10.852;2023-04-01T08:55:19;18.10;;;11.00;;
43327;SDS011;28923;45.412;10.852;2023-04-01T08:58:21;19.02;;;11.80;;
43327;SDS011;28923;45.412;10.852;2023-04-01T09:03:50;19.45;;;13.02;;
43327;SDS011;28923;45.412;10.852;2023-04-01T09:14:44;21.85;;;14.70;;
43327;SDS011;28923;45.412;10.852;2023-04-01T09:38:11;29.00;;;19.70;;
43327;SDS011;28923;45.412;10.852;2023-04-01T09:43:25;30.33;;;20.27;;
43327;SDS011;28923;45.412;10.852;2023-04-01T09:46:04;27.55;;;20.13;;
43327;SDS011;28923;45.412;10.852;2023-04-01T10:09:18;29.13;;;20.90;;
43327;SDS011;28923;45.412;10.852;2023-04-01T10:19:16;38.20;;;22.75;;
43327;SDS011;28923;45.412;10.852;2023-04-01T10:32:36;33.15;;;21.60;;
43327;SDS011;28923;45.412;10.852;2023-04-01T10:38:00;35.10;;;22.90;;
43327;SDS011;28923;45.412;10.852;2023-04-01T10:40:35;31.55;;;21.63;;
43327;SDS011;28923;45.412;10.852;2023-04-01T10:43:31;33.38;;;21.83;;
43327;SDS011;28923;45.412;10.852;2023-04-01T10:46:20;35.42;;;22.67;;
43327;SDS011;28923;45.412;10.852;2023-04-01T10:56:55;35.58;;;23.08;;
43327;SDS011;28923;45.412;10.852;2023-04-01T11:02:45;35.85;;;24.23;;
43327;SDS011;28923;45.412;10.852;2023-04-01T11:05:45;36.05;;;24.55;;
43327;SDS011;28923;45.412;10.852;2023-04-01T11:11:26;35.85;;;24.58;;
43327;SDS011;28923;45.412;10.852;2023-04-01T11:38:14;39.15;;;24.80;;
43327;SDS011;28923;45.412;10.852;2023-04-01T11:40:45;42.58;;;25.77;;
43327;SDS011;28923;45.412;10.852;2023-04-01T11:47:19;41.20;;;26.40;;
43327;SDS011;28923;45.412;10.852;2023-04-01T11:54:39;38.40;;;26.10;;
43327;SDS011;28923;45.412;10.852;2023-04-01T12:11:11;40.85;;;26.42;;
43327;SDS011;28923;45.412;10.852;2023-04-01T12:18:59;40.08;;;26.65;;
43327;SDS011;28923;45.412;10.852;2023-04-01T12:21:37;41.05;;;27.20;;
43327;SDS011;28923;45.412;10.852;2023-04-01T12:32:01;39.42;;;27.00;;
43327;SDS011;28923;45.412;10.852;2023-04-01T12:39:37;41.00;;;26.25;;
43327;SDS011;28923;45.412;10.852;2023-04-01T12:52:35;40.17;;;28.17;;
43327;SDS011;28923;45.412;10.852;2023-04-01T13:08:10;39.40;;;26.67;;
43327;SDS011;28923;45.412;10.852;2023-04-01T13:10:45;37.25;;;26.35;;
43327;SDS011;28923;45.412;10.852;2023-04-01T13:21:10;37.47;;;25.92;;
43327;SDS011;28923;45.412;10.852;2023-04-01T13:23:50;32.97;;;24.67;;
43327;SDS011;28923;45.412;10.852;2023-04-01T13:31:40;39.95;;;27.15;;
43327;SDS011;28923;45.412;10.852;2023-04-01T13:37:15;42.95;;;27.88;;
43327;SDS011;28923;45.412;10.852;2023-04-01T13:39:57;39.70;;;27.65;;
43327;SDS011;28923;45.412;10.852;2023-04-01T13:42:49;36.58;;;27.05;;
43327;SDS011;28923;45.412;10.852;2023-04-01T13:45:14;40.95;;;27.90;;
43327;SDS011;28923;45.412;10.852;2023-04-01T13:52:55;37.17;;;26.88;;
43327;SDS011;28923;45.412;10.852;2023-04-01T14:03:32;38.90;;;26.10;;
43327;SDS011;28923;45.412;10.852;2023-04-01T14:06:27;35.75;;;25.75;;
43327;SDS011;28923;45.412;10.852;2023-04-01T14:19:25;33.03;;;24.00;;
43327;SDS011;28923;45.412;10.852;2023-04-01T14:27:37;32.63;;;22.52;;
43327;SDS011;28923;45.412;10.852;2023-04-01T14:43:14;28.65;;;19.63;;
43327;SDS011;28923;45.412;10.852;2023-04-01T14:50:55;24.52;;;16.40;;
43327;SDS011;28923;45.412;10.852;2023-04-01T14:53:28;23.20;;;16.80;;
43327;SDS011;28923;45.412;10.852;2023-04-01T14:55:56;22.40;;;16.35;;
43327;SDS011;28923;45.412;10.852;2023-04-01T14:58:22;22.42;;;16.88;;
43327;SDS011;28923;45.412;10.852;2023-04-01T15:01:13;23.45;;;15.35;;
43327;SDS011;28923;45.412;10.852;2023-04-01T15:03:53;22.30;;;15.02;;
43327;SDS011;28923;45.412;10.852;2023-04-01T15:08:56;25.70;;;15.23;;
43327;SDS011;28923;45.412;10.852;2023-04-01T15:18:53;19.80;;;12.80;;
43327;SDS011;28923;45.412;10.852;2023-04-01T15:26:42;20.00;;;13.52;;
43327;SDS011;28923;45.412;10.852;2023-04-01T15:34:26;17.48;;;11.88;;
43327;SDS011;28923;45.412;10.852;2023-04-01T15:36:56;15.50;;;11.25;;
43327;SDS011;28923;45.412;10.852;2023-04-01T15:49:44;15.73;;;10.05;;
43327;SDS011;28923;45.412;10.852;2023-04-01T15:54:57;13.43;;;9.75;;
43327;SDS011;28923;45.412;10.852;2023-04-01T16:05:25;20.50;;;9.80;;
43327;SDS011;28923;45.412;10.852;2023-04-01T16:20:53;18.45;;;9.75;;
43327;SDS011;28923;45.412;10.852;2023-04-01T16:23:34;17.02;;;8.68;;
43327;SDS011;28923;45.412;10.852;2023-04-01T16:28:55;15.93;;;8.30;;
43327;SDS011;28923;45.412;10.852;2023-04-01T16:31:27;16.90;;;8.60;;
43327;SDS011;28923;45.412;10.852;2023-04-01T16:34:08;14.65;;;8.00;;
43327;SDS011;28923;45.412;10.852;2023-04-01T16:36:43;19.13;;;8.13;;
43327;SDS011;28923;45.412;10.852;2023-04-01T16:41:46;19.60;;;7.85;;
43327;SDS011;28923;45.412;10.852;2023-04-01T16:44:16;14.73;;;7.55;;
43327;SDS011;28923;45.412;10.852;2023-04-01T16:46:45;11.43;;;6.78;;
43327;SDS011;28923;45.412;10.852;2023-04-01T16:51:47;16.00;;;7.38;;
43327;SDS011;28923;45.412;10.852;2023-04-01T16:54:17;13.18;;;6.90;;
43327;SDS011;28923;45.412;10.852;2023-04-01T16:57:30;10.50;;;6.88;;
43327;SDS011;28923;45.412;10.852;2023-04-01T17:02:15;11.13;;;6.45;;
43327;SDS011;28923;45.412;10.852;2023-04-01T17:17:37;7.68;;;5.00;;
43327;SDS011;28923;45.412;10.852;2023-04-01T17:22:53;12.82;;;5.05;;
43327;SDS011;28923;45.412;10.852;2023-04-01T17:28:24;7.30;;;4.07;;
43327;SDS011;28923;45.412;10.852;2023-04-01T17:33:45;8.52;;;4.47;;
43327;SDS011;28923;45.412;10.852;2023-04-01T17:36:31;8.20;;;4.45;;
43327;SDS011;28923;45.412;10.852;2023-04-01T17:41:30;8.95;;;3.78;;
43327;SDS011;28923;45.412;10.852;2023-04-01T17:46:51;7.20;;;4.38;;
43327;SDS011;28923;45.412;10.852;2023-04-01T17:52:26;8.68;;;3.80;;
43327;SDS011;28923;45.412;10.852;2023-04-01T17:54:57;7.13;;;3.72;;
43327;SDS011;28923;45.412;10.852;2023-04-01T18:00:03;7.05;;;3.70;;
43327;SDS011;28923;45.412;10.852;2023-04-01T18:15:29;12.65;;;4.07;;
43327;SDS011;28923;45.412;10.852;2023-04-01T18:20:40;8.52;;;4.20;;
43327;SDS011;28923;45.412;10.852;2023-04-01T18:23:19;8.10;;;3.60;;
43327;SDS011;28923;45.412;10.852;2023-04-01T18:25:48;9.65;;;3.58;;
43327;SDS011;28923;45.412;10.852;2023-04-01T18:28:16;7.35;;;3.30;;
43327;SDS011;28923;45.412;10.852;2023-04-01T18:30:44;7.20;;;3.30;;
43327;SDS011;28923;45.412;10.852;2023-04-01T18:34:16;6.45;;;3.60;;
43327;SDS011;28923;45.412;10.852;2023-04-01T18:49:46;14.68;;;4.65;;
43327;SDS011;28923;45.412;10.852;2023-04-01T18:52:15;7.53;;;4.03;;
43327;SDS011;28923;45.412;10.852;2023-04-01T18:54:43;9.63;;;4.43;;
43327;SDS011;28923;45.412;10.852;2023-04-01T18:57:12;11.40;;;4.40;;
43327;SDS011;28923;45.412;10.852;2023-04-01T18:59:50;7.43;;;3.90;;
43327;SDS011;28923;45.412;10.852;2023-04-01T19:02:34;9.48;;;3.65;;
43327;SDS011;28923;45.412;10.852;2023-04-01T19:07:55;9.75;;;3.78;;
43327;SDS011;28923;45.412;10.852;2023-04-01T19:20:29;8.80;;;3.90;;
43327;SDS011;28923;45.412;10.852;2023-04-01T19:25:26;7.85;;;3.80;;
43327;SDS011;28923;45.412;10.852;2023-04-01T19:27:53;8.60;;;3.63;;
43327;SDS011;28923;45.412;10.852;2023-04-01T19:35:37;7.95;;;3.90;;
43327;SDS011;28923;45.412;10.852;2023-04-01T19:56:02;6.22;;;3.58;;
43327;SDS011;28923;45.412;10.852;2023-04-01T20:00:58;5.88;;;3.55;;
43327;SDS011;28923;45.412;10.852;2023-04-01T20:11:46;3.92;;;3.03;;
43327;SDS011;28923;45.412;10.852;2023-04-01T20:13:54;5.65;;;3.38;;
43327;SDS011;28923;45.412;10.852;2023-04-01T20:16:21;5.75;;;3.17;;
43327;SDS011;28923;45.412;10.852;2023-04-01T20:18:52;4.25;;;3.00;;
43327;SDS011;28923;45.412;10.852;2023-04-01T20:26:22;6.50;;;3.25;;
43327;SDS011;28923;45.412;10.852;2023-04-01T20:28:57;4.57;;;3.15;;
43327;SDS011;28923;45.412;10.852;2023-04-01T20:31:24;4.50;;;2.97;;
43327;SDS011;28923;45.412;10.852;2023-04-01T20:44:59;5.20;;;3.08;;
43327;SDS011;28923;45.412;10.852;2023-04-01T20:52:42;3.95;;;2.85;;
43327;SDS011;28923;45.412;10.852;2023-04-01T20:55:17;3.20;;;2.67;;
43327;SDS011;28923;45.412;10.852;2023-04-01T21:05:36;4.10;;;2.47;;
43327;SDS011;28923;45.412;10.852;2023-04-01T21:13:39;5.07;;;2.72;;
43327;SDS011;28923;45.412;10.852;2023-04-01T21:31:59;3.00;;;2.55;;
43327;SDS011;28923;45.412;10.852;2023-04-01T21:39:43;4.93;;;2.65;;
43327;SDS011;28923;45.412;10.852;2023-04-01T21:44:54;4.78;;;2.30;;
43327;SDS011;28923;45.412;10.852;2023-04-01T21:53:26;2.85;;;2.50;;
43327;SDS011;28923;45.412;10.852;2023-04-01T22:20:21;4.10;;;2.72;;
43327;SDS011;28923;45.412;10.852;2023-04-01T22:25:42;3.67;;;2.80;;
43327;SDS011;28923;45.412;10.852;2023-04-01T22:30:45;4.20;;;2.78;;
43327;SDS011;28923;45.412;10.852;2023-04-01T22:33:15;6.15;;;3.25;;
43327;SDS011;28923;45.412;10.852;2023-04-01T22:38:12;4.38;;;3.03;;
43327;SDS011;28923;45.412;10.852;2023-04-01T22:43:10;3.50;;;3.20;;
43327;SDS011;28923;45.412;10.852;2023-04-01T22:48:47;3.85;;;3.00;;
43327;SDS011;28923;45.412;10.852;2023-04-01T22:59:45;3.55;;;2.88;;
43327;SDS011;28923;45.412;10.852;2023-04-01T23:02:19;4.00;;;3.20;;
43327;SDS011;28923;45.412;10.852;2023-04-01T23:04:47;3.67;;;3.10;;
43327;SDS011;28923;45.412;10.852;2023-04-01T23:09:58;5.50;;;3.10;;
43327;SDS011;28923;45.412;10.852;2023-04-01T23:12:24;4.90;;;4.03;;
43327;SDS011;28923;45.412;10.852;2023-04-01T23:14:51;3.67;;;3.20;;
43327;SDS011;28923;45.412;10.852;2023-04-01T23:19:54;3.45;;;2.92;;
43327;SDS011;28923;45.412;10.852;2023-04-01T23:27:19;4.72;;;3.67;;
43327;SDS011;28923;45.412;10.852;2023-04-01T23:29:46;4.30;;;3.40;;
43327;SDS011;28923;45.412;10.852;2023-04-01T23:32:18;4.60;;;3.42;;
43327;SDS011;28923;45.412;10.852;2023-04-01T23:34:50;4.22;;;3.17;;
43327;SDS011;28923;45.412;10.852;2023-04-01T23:37:16;4.10;;;3.45;;
43327;SDS011;28923;45.412;10.852;2023-04-01T23:39:45;3.88;;;3.42;;
43327;SDS011;28923;45.412;10.852;2023-04-01T23:44:36;4.85;;;3.60;;
43327;SDS011;28923;45.412;10.852;2023-04-01T23:47:02;5.47;;;3.50;;
43327;SDS011;28923;45.412;10.852;2023-04-01T23:49:30;5.85;;;4.00;;
43327;SDS011;28923;45.412;10.852;2023-04-01T23:51:59;5.35;;;3.42;;
43327;SDS011;28923;45.412;10.852;2023-04-01T23:54:38;4.20;;;3.70;;
43327;SDS011;28923;45.412;10.852;2023-04-01T23:57:09;4.43;;;3.30;;
43327;SDS011;28923;45.412;10.852;2023-04-01T23:59:36;4.93;;;3.35;;
